Time;durP1;ratioP1;P1;durP2;ratioP2;P2;SDS_P1;SDS_P2;PMS_P1;PMS_P2;Temp;Humidity;BMP_temperature;BMP_pressure;BME280_temperature;BME280_humidity;BME280_pressure;Samples;Min_cycle;Max_cycle;Signal;HPM_P1;HPM_P2
2022/07/18 00:01:31;;;;;;;4.32;1.95;;;24.20;77.30;;;;;;5123387;27;20496;-76
2022/07/18 00:03:57;;;;;;;3.42;2.05;;;24.20;77.30;;;;;;5124425;27;20526;-76
2022/07/18 00:06:23;;;;;;;4.30;2.05;;;24.20;77.20;;;;;;5126087;27;20050;-76
2022/07/18 00:08:48;;;;;;;2.83;1.88;;;24.20;77.00;;;;;;5123260;27;20079;-76
2022/07/18 00:11:14;;;;;;;3.08;1.60;;;24.20;77.00;;;;;;5125178;27;20044;-76
2022/07/18 00:13:40;;;;;;;5.93;2.22;;;24.20;76.90;;;;;;5125233;27;20039;-76
2022/07/18 00:16:06;;;;;;;5.07;2.10;;;24.20;76.80;;;;;;5123451;27;20135;-76
2022/07/18 00:18:32;;;;;;;3.00;2.00;;;24.20;76.80;;;;;;5124165;27;20035;-76
2022/07/18 00:20:58;;;;;;;5.05;2.05;;;24.10;76.70;;;;;;5123315;27;20054;-76
2022/07/18 00:23:23;;;;;;;3.40;2.13;;;24.10;76.60;;;;;;5126298;27;20118;-76
2022/07/18 00:25:49;;;;;;;3.05;1.60;;;24.10;76.80;;;;;;5122229;27;20043;-76
2022/07/18 00:28:15;;;;;;;3.53;2.00;;;24.10;76.90;;;;;;5124909;27;20130;-76
2022/07/18 00:30:40;;;;;;;3.97;2.40;;;24.10;76.90;;;;;;5122443;27;20040;-76
2022/07/18 00:33:07;;;;;;;4.03;2.35;;;24.10;76.70;;;;;;5124639;27;20039;-76
2022/07/18 00:35:32;;;;;;;3.30;1.80;;;24.00;76.60;;;;;;5123449;27;21258;-76
2022/07/18 00:37:58;;;;;;;2.95;1.80;;;24.00;76.60;;;;;;5107256;27;20713;-76
2022/07/18 00:40:24;;;;;;;4.03;3.28;;;24.00;76.60;;;;;;5124869;27;20449;-75
2022/07/18 00:42:49;;;;;;;4.35;1.48;;;24.00;76.60;;;;;;5124813;27;20115;-76
2022/07/18 00:45:15;;;;;;;3.13;1.60;;;23.90;76.40;;;;;;5126963;27;20650;-76
2022/07/18 00:47:41;;;;;;;3.97;1.58;;;23.90;76.40;;;;;;5123059;27;20529;-75
2022/07/18 00:50:09;;;;;;;6.55;2.28;;;23.90;76.30;;;;;;5124292;27;20039;-75
2022/07/18 00:52:36;;;;;;;7.13;1.98;;;23.90;76.10;;;;;;5126403;27;20035;-75
2022/07/18 00:55:05;;;;;;;3.22;1.88;;;23.90;76.10;;;;;;5124053;27;20054;-76
2022/07/18 00:57:31;;;;;;;2.55;1.52;;;23.90;76.00;;;;;;5108926;27;20636;-75
2022/07/18 01:02:41;;;;;;;5.97;1.67;;;23.80;75.80;;;;;;5124346;27;20040;-76
2022/07/18 01:05:08;;;;;;;3.83;1.63;;;23.80;75.80;;;;;;5123608;27;20047;-76
2022/07/18 01:07:35;;;;;;;5.72;2.03;;;23.80;75.70;;;;;;5126439;27;20119;-76
2022/07/18 01:10:02;;;;;;;6.13;2.10;;;23.80;75.70;;;;;;5122809;27;20537;-76
2022/07/18 01:12:28;;;;;;;3.33;2.13;;;23.80;75.60;;;;;;5122481;27;20146;-76
2022/07/18 01:14:55;;;;;;;6.50;3.58;;;23.70;75.40;;;;;;5124649;27;20045;-76
2022/07/18 01:17:21;;;;;;;8.68;4.82;;;23.70;75.50;;;;;;5123678;27;20036;-76
2022/07/18 01:19:47;;;;;;;16.40;7.53;;;23.70;75.60;;;;;;5124169;27;20517;-76
2022/07/18 01:22:15;;;;;;;15.93;7.13;;;23.60;75.70;;;;;;5123953;27;20100;-76
2022/07/18 01:24:41;;;;;;;17.48;8.52;;;23.60;75.90;;;;;;5124541;27;20043;-76
2022/07/18 01:27:07;;;;;;;14.32;7.70;;;23.60;76.10;;;;;;5139609;27;20042;-76
2022/07/18 01:29:33;;;;;;;12.05;6.22;;;23.50;76.30;;;;;;5124303;27;20623;-76
2022/07/18 01:32:07;;;;;;;9.07;5.00;;;23.50;76.50;;;;;;5121872;27;20177;-76
2022/07/18 01:34:32;;;;;;;6.53;4.10;;;23.50;76.60;;;;;;5122039;27;20771;-76
2022/07/18 01:36:59;;;;;;;8.52;3.70;;;23.50;76.70;;;;;;5122570;27;20867;-76
2022/07/18 01:39:25;;;;;;;7.05;3.85;;;23.40;76.70;;;;;;5122205;27;20059;-76
2022/07/18 01:42:03;;;;;;;9.57;4.05;;;23.40;76.80;;;;;;5123347;27;20048;-76
2022/07/18 01:44:29;;;;;;;8.30;3.70;;;23.40;76.90;;;;;;5122151;27;20094;-76
2022/07/18 01:46:55;;;;;;;8.07;4.50;;;23.40;77.00;;;;;;5124148;27;20054;-76
2022/07/18 01:49:23;;;;;;;6.93;3.58;;;23.40;77.10;;;;;;5123254;27;20409;-76
2022/07/18 01:51:52;;;;;;;7.20;3.78;;;23.40;77.30;;;;;;5125713;27;20417;-76
2022/07/18 01:54:22;;;;;;;5.53;3.05;;;23.30;77.30;;;;;;5122936;27;20402;-76
2022/07/18 01:56:48;;;;;;;4.43;2.33;;;23.30;77.20;;;;;;5125369;27;20104;-76
2022/07/18 01:59:14;;;;;;;4.63;1.83;;;23.30;77.10;;;;;;5125795;27;20051;-76
2022/07/18 02:01:40;;;;;;;8.73;2.47;;;23.30;77.00;;;;;;5123306;27;20153;-76
2022/07/18 02:04:05;;;;;;;3.50;2.05;;;23.30;76.90;;;;;;5123774;27;20040;-76
2022/07/18 02:06:31;;;;;;;2.95;1.77;;;23.30;76.90;;;;;;5123962;27;20130;-76
2022/07/18 02:08:57;;;;;;;4.50;1.65;;;23.30;76.90;;;;;;5122552;27;20055;-76
2022/07/18 02:11:23;;;;;;;3.65;1.58;;;23.30;76.90;;;;;;5123752;27;20040;-76
2022/07/18 02:13:49;;;;;;;7.15;2.03;;;23.30;76.90;;;;;;5123199;27;20494;-76
2022/07/18 02:16:15;;;;;;;4.57;2.85;;;23.30;76.90;;;;;;5122298;27;20043;-76
2022/07/18 02:18:41;;;;;;;3.75;1.98;;;23.20;76.80;;;;;;5125107;27;20035;-76
2022/07/18 02:21:07;;;;;;;2.83;2.10;;;23.20;76.90;;;;;;5123303;27;20512;-76
2022/07/18 02:23:35;;;;;;;4.70;2.20;;;23.20;76.80;;;;;;5121861;27;20055;-76
2022/07/18 02:26:01;;;;;;;7.00;2.05;;;23.20;76.80;;;;;;5124870;27;20063;-76
2022/07/18 02:28:26;;;;;;;5.57;2.17;;;23.10;76.70;;;;;;5127467;27;20576;-76
2022/07/18 02:30:52;;;;;;;5.68;1.95;;;23.10;76.80;;;;;;5127462;27;20043;-76
2022/07/18 02:33:18;;;;;;;7.05;2.30;;;23.10;76.90;;;;;;5127214;27;20039;-76
2022/07/18 02:35:45;;;;;;;3.83;2.22;;;23.00;77.00;;;;;;5110275;27;20063;-76
2022/07/18 02:38:10;;;;;;;2.78;2.00;;;23.00;77.20;;;;;;5124849;27;20054;-76
2022/07/18 02:40:36;;;;;;;3.80;1.63;;;23.00;77.30;;;;;;5125622;27;20043;-75
2022/07/18 02:43:03;;;;;;;3.30;1.85;;;23.00;77.50;;;;;;5110176;27;20039;-76
2022/07/18 02:45:28;;;;;;;5.63;2.78;;;22.90;77.50;;;;;;5128484;27;20119;-75
2022/07/18 02:47:54;;;;;;;5.50;1.85;;;22.90;77.70;;;;;;5126989;27;20046;-76
2022/07/18 02:50:20;;;;;;;3.17;1.80;;;22.90;77.70;;;;;;5125822;27;20048;-76
2022/07/18 02:52:46;;;;;;;4.30;2.00;;;22.90;77.80;;;;;;5128852;27;20039;-75
2022/07/18 02:55:13;;;;;;;2.92;2.15;;;22.90;78.00;;;;;;5123631;27;20045;-76
2022/07/18 02:57:39;;;;;;;4.72;1.40;;;22.80;78.00;;;;;;5127211;27;20124;-75
2022/07/18 03:00:07;;;;;;;3.45;1.50;;;22.80;78.10;;;;;;5127590;27;20504;-76
2022/07/18 03:02:32;;;;;;;3.28;2.35;;;22.80;78.20;;;;;;5126650;27;20052;-75
2022/07/18 03:04:58;;;;;;;5.50;1.95;;;22.70;78.30;;;;;;5142861;27;20089;-76
2022/07/18 03:07:24;;;;;;;6.45;2.17;;;22.80;78.50;;;;;;5127617;27;20044;-75
2022/07/18 03:09:50;;;;;;;7.22;2.20;;;22.70;78.50;;;;;;5127857;27;20056;-75
2022/07/18 03:12:17;;;;;;;5.13;1.80;;;22.70;78.60;;;;;;5125484;27;20036;-76
2022/07/18 03:14:42;;;;;;;4.93;1.67;;;22.70;78.60;;;;;;5124554;27;20107;-76
2022/07/18 03:17:08;;;;;;;7.82;2.20;;;22.70;78.50;;;;;;5126333;27;20498;-76
2022/07/18 03:19:35;;;;;;;3.20;1.85;;;22.70;78.40;;;;;;5127805;27;20138;-75
2022/07/18 03:22:01;;;;;;;4.88;1.80;;;22.70;78.30;;;;;;5125123;27;20444;-76
2022/07/18 03:24:27;;;;;;;3.53;2.22;;;22.70;78.20;;;;;;5127184;27;20573;-75
2022/07/18 03:26:52;;;;;;;5.88;1.75;;;22.70;78.10;;;;;;5126560;27;20040;-76
2022/07/18 03:29:18;;;;;;;3.05;1.50;;;22.70;78.10;;;;;;5125441;27;20058;-76
2022/07/18 03:31:44;;;;;;;2.58;1.40;;;22.70;78.00;;;;;;5126446;27;20492;-75
2022/07/18 03:34:10;;;;;;;5.20;1.70;;;22.70;78.10;;;;;;5125872;27;20093;-76
2022/07/18 03:36:36;;;;;;;4.43;1.88;;;22.60;78.00;;;;;;5125905;27;20156;-76
2022/07/18 03:39:03;;;;;;;3.60;1.73;;;22.60;78.10;;;;;;5110113;27;20159;-76
2022/07/18 03:41:29;;;;;;;6.25;2.30;;;22.60;78.10;;;;;;5123650;27;20035;-76
2022/07/18 03:43:55;;;;;;;6.82;2.90;;;22.60;78.10;;;;;;5124869;27;20043;-76
2022/07/18 03:46:20;;;;;;;16.10;4.22;;;22.60;78.10;;;;;;5124735;27;20040;-76
2022/07/18 03:48:46;;;;;;;8.85;2.75;;;22.50;78.20;;;;;;5126271;27;20089;-76
2022/07/18 03:51:12;;;;;;;6.93;2.75;;;22.50;78.30;;;;;;5125539;27;20421;-76
2022/07/18 03:53:38;;;;;;;7.47;2.80;;;22.50;78.30;;;;;;5126480;27;21224;-76
2022/07/18 03:56:04;;;;;;;9.93;3.08;;;22.50;78.40;;;;;;5125387;27;20586;-76
2022/07/18 03:58:30;;;;;;;8.63;3.55;;;22.50;78.50;;;;;;5124204;27;20048;-76
2022/07/18 04:00:55;;;;;;;12.48;5.20;;;22.40;78.50;;;;;;5126976;27;20501;-76
2022/07/18 04:03:21;;;;;;;11.32;5.35;;;22.40;78.50;;;;;;5126021;27;20142;-76
2022/07/18 04:05:47;;;;;;;9.90;2.80;;;22.40;78.60;;;;;;5127223;27;20062;-76
2022/07/18 04:08:13;;;;;;;7.30;3.17;;;22.30;78.60;;;;;;5125099;27;20521;-75
2022/07/18 04:10:39;;;;;;;6.88;2.92;;;22.30;78.60;;;;;;5125238;27;20094;-75
2022/07/18 04:13:07;;;;;;;6.85;2.33;;;22.30;78.80;;;;;;5127032;27;20046;-75
2022/07/18 04:15:33;;;;;;;6.18;2.80;;;22.30;79.00;;;;;;5109968;27;20039;-76
2022/07/18 04:17:59;;;;;;;7.93;2.13;;;22.30;79.10;;;;;;5123897;27;20055;-75
2022/07/18 04:20:25;;;;;;;3.70;2.10;;;22.30;79.20;;;;;;5125692;27;20048;-75
2022/07/18 04:22:56;;;;;;;9.63;2.03;;;22.30;79.30;;;;;;5125899;27;20054;-75
2022/07/18 04:25:24;;;;;;;5.32;2.33;;;22.20;79.40;;;;;;5125306;27;20157;-76
2022/07/18 04:27:50;;;;;;;5.25;1.85;;;22.20;79.50;;;;;;5125622;27;20043;-76
2022/07/18 04:30:18;;;;;;;4.63;2.10;;;22.10;79.50;;;;;;5126477;27;20042;-76
2022/07/18 04:32:44;;;;;;;5.57;2.13;;;22.20;79.70;;;;;;5125993;27;20139;-75
2022/07/18 04:35:11;;;;;;;4.22;2.15;;;22.10;79.80;;;;;;5127017;27;20138;-76
2022/07/18 04:37:38;;;;;;;3.45;1.95;;;22.20;80.00;;;;;;5124760;27;20035;-76
2022/07/18 04:40:08;;;;;;;5.55;2.08;;;22.10;80.20;;;;;;5126368;27;20032;-76
2022/07/18 04:42:34;;;;;;;3.50;1.85;;;22.10;80.20;;;;;;5125476;27;20039;-76
2022/07/18 04:44:59;;;;;;;4.22;2.08;;;22.20;80.40;;;;;;5121270;27;20724;-76
2022/07/18 04:47:26;;;;;;;2.38;1.85;;;22.20;80.40;;;;;;5125149;27;20088;-75
2022/07/18 04:49:52;;;;;;;3.53;1.40;;;22.20;80.40;;;;;;5123867;27;20043;-76
2022/07/18 04:52:18;;;;;;;4.80;1.77;;;22.20;80.40;;;;;;5123472;27;20123;-76
2022/07/18 04:54:44;;;;;;;7.45;1.63;;;22.30;80.40;;;;;;5126596;27;20031;-75
2022/07/18 04:57:11;;;;;;;4.28;1.70;;;22.30;80.40;;;;;;5126286;27;20032;-76
2022/07/18 04:59:38;;;;;;;3.33;2.05;;;22.30;80.20;;;;;;5125300;27;20058;-75
2022/07/18 05:02:04;;;;;;;4.90;2.80;;;22.30;80.20;;;;;;5125231;27;21642;-75
2022/07/18 05:04:30;;;;;;;3.67;1.73;;;22.30;80.10;;;;;;5125490;27;20055;-76
2022/07/18 05:06:56;;;;;;;7.40;1.77;;;22.30;80.10;;;;;;5125851;27;20097;-75
2022/07/18 05:09:22;;;;;;;5.90;1.75;;;22.30;80.00;;;;;;5126222;27;20044;-76
2022/07/18 05:11:47;;;;;;;3.88;2.20;;;22.10;79.80;;;;;;5126957;27;20035;-75
2022/07/18 05:14:13;;;;;;;3.33;1.90;;;22.30;79.80;;;;;;5127227;27;20043;-76
2022/07/18 05:16:39;;;;;;;4.78;3.00;;;22.40;79.70;;;;;;5125423;27;20048;-76
2022/07/18 05:19:05;;;;;;;3.67;1.88;;;22.40;79.50;;;;;;5125440;27;20119;-76
2022/07/18 05:21:31;;;;;;;4.18;1.90;;;22.40;79.20;;;;;;5127056;27;20031;-76
2022/07/18 05:23:57;;;;;;;3.17;1.55;;;22.40;79.10;;;;;;5126121;27;20078;-76
2022/07/18 05:26:23;;;;;;;2.90;1.63;;;22.40;79.10;;;;;;5124237;27;20570;-76
2022/07/18 05:28:48;;;;;;;3.33;1.80;;;22.40;79.30;;;;;;5125086;27;20055;-76
2022/07/18 05:31:14;;;;;;;4.10;1.73;;;22.50;79.40;;;;;;5125410;27;20600;-76
2022/07/18 05:33:40;;;;;;;2.50;1.50;;;22.50;79.60;;;;;;5125883;27;20043;-76
2022/07/18 05:36:06;;;;;;;7.88;2.20;;;22.50;79.50;;;;;;5123860;27;20047;-76
2022/07/18 05:38:32;;;;;;;2.50;1.58;;;22.60;79.40;;;;;;5125593;27;20032;-76
2022/07/18 05:40:58;;;;;;;2.97;1.73;;;22.60;79.30;;;;;;5126173;27;20522;-76
2022/07/18 05:43:23;;;;;;;9.40;1.95;;;22.60;79.30;;;;;;5126705;27;20039;-76
2022/07/18 05:45:49;;;;;;;7.35;1.88;;;22.70;79.50;;;;;;5126085;27;20067;-76
2022/07/18 05:48:15;;;;;;;3.00;1.35;;;22.70;79.30;;;;;;5124669;27;20088;-76
2022/07/18 05:50:41;;;;;;;5.05;2.00;;;22.80;79.20;;;;;;5126222;27;20413;-76
2022/07/18 05:53:07;;;;;;;2.50;1.58;;;22.80;78.80;;;;;;5124526;27;20050;-75
2022/07/18 05:55:33;;;;;;;5.32;2.20;;;22.70;78.50;;;;;;5126370;27;20047;-76
2022/07/18 05:57:58;;;;;;;4.22;2.45;;;22.70;78.50;;;;;;5125964;27;20036;-76
2022/07/18 06:00:24;;;;;;;2.83;1.70;;;22.70;78.50;;;;;;5127422;27;20604;-76
2022/07/18 06:02:50;;;;;;;4.90;1.75;;;22.70;78.50;;;;;;5127061;27;20727;-76
2022/07/18 06:05:16;;;;;;;2.80;1.48;;;22.70;78.30;;;;;;5126862;27;20550;-76
2022/07/18 06:07:42;;;;;;;4.38;2.00;;;22.80;78.40;;;;;;5127207;27;20413;-76
2022/07/18 06:10:09;;;;;;;6.60;1.92;;;22.80;78.50;;;;;;5127061;27;20032;-76
2022/07/18 06:12:34;;;;;;;7.47;3.50;;;22.80;78.50;;;;;;5130042;27;20079;-76
2022/07/18 06:15:00;;;;;;;7.38;3.60;;;22.80;78.50;;;;;;5110492;27;20509;-76
2022/07/18 06:17:29;;;;;;;5.30;2.97;;;22.80;78.60;;;;;;5125900;27;20325;-76
2022/07/18 06:19:56;;;;;;;8.75;2.20;;;22.80;78.60;;;;;;5128414;27;20548;-76
2022/07/18 06:22:22;;;;;;;3.05;1.80;;;22.80;78.50;;;;;;5127061;27;20076;-76
2022/07/18 06:24:48;;;;;;;4.40;1.48;;;22.90;78.50;;;;;;5128175;27;20049;-76
2022/07/18 06:27:14;;;;;;;3.10;1.70;;;22.90;79.00;;;;;;5123988;27;20035;-76
2022/07/18 06:29:40;;;;;;;2.08;1.63;;;22.90;78.30;;;;;;5128112;27;20036;-76
2022/07/18 06:32:06;;;;;;;4.88;1.75;;;22.90;78.30;;;;;;5129174;27;20065;-76
2022/07/18 06:34:32;;;;;;;6.05;1.60;;;22.90;78.30;;;;;;5128446;27;20039;-76
2022/07/18 06:36:58;;;;;;;5.43;1.90;;;23.00;78.30;;;;;;5128897;27;20043;-76
2022/07/18 06:39:24;;;;;;;5.35;2.28;;;23.00;78.40;;;;;;5125887;27;21283;-76
2022/07/18 06:41:49;;;;;;;5.85;1.63;;;23.00;78.50;;;;;;5127782;27;20036;-76
2022/07/18 06:44:15;;;;;;;5.50;2.10;;;23.00;78.60;;;;;;5128496;27;20441;-76
2022/07/18 06:46:42;;;;;;;3.45;2.00;;;23.00;78.60;;;;;;5127070;27;20526;-76
2022/07/18 06:49:08;;;;;;;8.75;1.70;;;23.00;78.60;;;;;;5127130;27;20120;-76
2022/07/18 06:51:34;;;;;;;4.00;1.67;;;23.00;78.60;;;;;;5127277;27;20043;-76
2022/07/18 06:54:00;;;;;;;3.33;1.52;;;23.10;78.70;;;;;;5126223;27;20039;-76
2022/07/18 06:56:26;;;;;;;2.90;1.58;;;23.10;78.70;;;;;;5125848;27;20047;-76
2022/07/18 06:58:52;;;;;;;3.00;1.60;;;23.10;78.70;;;;;;5125749;27;20035;-76
2022/07/18 07:01:20;;;;;;;3.50;2.42;;;23.10;78.70;;;;;;5127232;27;20122;-76
2022/07/18 07:03:46;;;;;;;3.10;1.98;;;23.20;78.80;;;;;;5125967;27;20043;-76
2022/07/18 07:06:13;;;;;;;4.97;1.55;;;23.10;78.70;;;;;;5125273;27;20039;-77
2022/07/18 07:08:39;;;;;;;3.55;1.98;;;23.30;79.00;;;;;;5126237;27;20056;-76
2022/07/18 07:11:05;;;;;;;5.25;1.75;;;23.30;79.00;;;;;;5126245;27;20039;-76
2022/07/18 07:13:31;;;;;;;2.92;1.88;;;23.30;79.10;;;;;;5125991;27;20640;-76
2022/07/18 07:15:57;;;;;;;5.13;1.77;;;23.30;79.10;;;;;;5127024;27;20035;-76
2022/07/18 07:18:23;;;;;;;2.38;1.60;;;23.40;79.10;;;;;;5127242;27;20039;-76
2022/07/18 07:20:49;;;;;;;3.25;2.17;;;23.40;79.10;;;;;;5127197;27;20070;-76
2022/07/18 07:23:16;;;;;;;3.85;1.45;;;23.40;79.10;;;;;;5125560;27;20516;-77
2022/07/18 07:25:42;;;;;;;3.10;1.48;;;23.40;79.10;;;;;;5127340;27;20100;-75
2022/07/18 07:28:08;;;;;;;2.97;1.73;;;23.40;79.10;;;;;;5125979;27;20048;-76
2022/07/18 07:30:34;;;;;;;3.13;1.95;;;23.50;79.10;;;;;;5125579;27;20047;-76
2022/07/18 07:33:01;;;;;;;7.53;2.17;;;23.50;79.10;;;;;;5127286;27;20035;-75
2022/07/18 07:35:27;;;;;;;4.85;1.50;;;23.50;78.90;;;;;;5127269;27;20043;-75
2022/07/18 07:37:56;;;;;;;9.70;1.90;;;23.60;78.70;;;;;;5123372;27;20054;-76
2022/07/18 07:40:24;;;;;;;7.85;1.73;;;23.60;78.50;;;;;;5125619;27;20244;-75
2022/07/18 07:42:50;;;;;;;6.20;2.30;;;23.60;78.40;;;;;;5124847;27;20544;-76
2022/07/18 07:45:18;;;;;;;5.35;1.95;;;23.60;78.30;;;;;;5125066;27;20266;-75
2022/07/18 07:47:44;;;;;;;7.40;2.28;;;23.70;78.20;;;;;;5124049;27;20126;-76
2022/07/18 07:50:11;;;;;;;5.88;1.88;;;23.70;78.20;;;;;;5125266;27;20082;-76
2022/07/18 07:52:38;;;;;;;6.13;1.58;;;23.70;78.10;;;;;;5126261;27;20541;-75
2022/07/18 07:55:07;;;;;;;5.07;1.63;;;23.80;78.10;;;;;;5124294;27;20031;-75
2022/07/18 07:57:35;;;;;;;6.47;1.70;;;23.80;77.90;;;;;;5127718;27;20661;-75
2022/07/18 08:00:04;;;;;;;6.07;1.80;;;23.80;77.90;;;;;;5126362;27;20531;-76
2022/07/18 08:02:29;;;;;;;4.47;1.67;;;23.90;77.90;;;;;;5125910;27;20127;-75
2022/07/18 08:04:55;;;;;;;9.43;2.00;;;23.90;77.80;;;;;;5124599;27;20756;-75
2022/07/18 08:07:21;;;;;;;2.92;1.95;;;23.90;77.40;;;;;;5126260;27;20093;-75
2022/07/18 08:09:47;;;;;;;4.32;1.95;;;24.00;77.30;;;;;;5126256;27;20044;-75
2022/07/18 08:12:12;;;;;;;3.45;1.75;;;24.00;77.20;;;;;;5127710;27;20051;-75
2022/07/18 08:14:40;;;;;;;5.15;2.05;;;24.00;77.10;;;;;;5125194;27;20040;-76
2022/07/18 08:17:06;;;;;;;5.85;2.33;;;24.10;76.90;;;;;;5125673;27;20045;-75
2022/07/18 08:19:32;;;;;;;5.47;1.88;;;24.10;76.80;;;;;;5126676;27;20075;-75
2022/07/18 08:21:57;;;;;;;3.35;2.00;;;24.20;76.80;;;;;;5123739;27;20469;-76
2022/07/18 08:24:24;;;;;;;9.35;1.83;;;24.20;76.60;;;;;;5125196;27;20074;-75
2022/07/18 08:26:50;;;;;;;3.78;1.85;;;24.20;76.40;;;;;;5125127;27;20043;-75
2022/07/18 08:29:17;;;;;;;6.43;2.00;;;24.30;76.10;;;;;;5124788;27;20054;-75
2022/07/18 08:31:43;;;;;;;7.50;2.08;;;24.30;76.00;;;;;;5126445;27;20578;-75
2022/07/18 08:34:08;;;;;;;3.97;1.98;;;24.40;75.80;;;;;;5124842;27;20039;-76
2022/07/18 08:36:34;;;;;;;5.97;1.63;;;24.40;75.60;;;;;;5125244;27;20077;-75
2022/07/18 08:39:00;;;;;;;6.63;2.20;;;24.40;75.50;;;;;;5126123;27;20074;-75
2022/07/18 08:41:27;;;;;;;5.95;1.63;;;24.50;75.40;;;;;;5126464;27;20128;-75
2022/07/18 08:43:53;;;;;;;5.10;1.98;;;24.50;75.30;;;;;;5127510;27;20043;-75
2022/07/18 08:46:21;;;;;;;12.23;2.72;;;24.60;75.20;;;;;;5125043;27;20035;-75
2022/07/18 08:48:48;;;;;;;18.13;4.63;;;24.60;75.10;;;;;;5126172;27;20040;-75
2022/07/18 08:51:15;;;;;;;15.95;3.28;;;24.70;74.90;;;;;;5125291;27;20126;-75
2022/07/18 08:53:41;;;;;;;6.38;1.98;;;24.70;74.70;;;;;;5126886;27;20043;-75
2022/07/18 08:56:07;;;;;;;6.82;2.22;;;24.70;74.40;;;;;;5125061;27;20093;-75
2022/07/18 08:58:33;;;;;;;6.05;2.95;;;24.80;74.20;;;;;;5128373;27;20047;-75
2022/07/18 09:00:59;;;;;;;2.90;1.50;;;24.80;74.00;;;;;;5124615;27;20039;-75
2022/07/18 09:03:25;;;;;;;3.03;1.63;;;24.80;73.80;;;;;;5125370;27;20036;-75
2022/07/18 09:06:07;;;;;;;2.70;1.70;;;24.90;73.60;;;;;;5124371;27;20031;-76
2022/07/18 09:08:33;;;;;;;;;;;24.90;73.20;;;;;;5124292;27;20058;-76
2022/07/18 09:11:03;;;;;;;2.67;1.60;;;25.00;73.20;;;;;;5123448;27;19930;-75
2022/07/18 09:13:39;;;;;;;4.90;1.77;;;25.00;73.10;;;;;;5122504;27;20040;-75
2022/07/18 09:16:11;;;;;;;8.23;3.00;;;25.00;73.40;;;;;;5124511;27;20043;-75
2022/07/18 09:18:40;;;;;;;4.05;2.15;;;25.10;72.80;;;;;;5121901;27;20046;-79
2022/07/18 09:21:10;;;;;;;2.17;1.20;;;25.10;72.60;;;;;;5126751;27;20039;-75
2022/07/18 09:23:39;;;;;;;2.57;1.27;;;25.20;72.40;;;;;;5124262;27;20910;-75
2022/07/18 09:26:05;;;;;;;4.60;1.63;;;25.20;72.30;;;;;;5123798;27;20039;-75
2022/07/18 09:28:49;;;;;;;5.03;2.25;;;25.20;72.10;;;;;;5105819;27;20134;-75
2022/07/18 09:31:24;;;;;;;3.20;1.70;;;25.30;71.60;;;;;;5125323;27;20143;-75
2022/07/18 09:34:00;;;;;;;5.90;1.80;;;25.30;71.30;;;;;;5125553;27;20106;-75
2022/07/18 09:36:27;;;;;;;2.70;1.70;;;25.40;71.10;;;;;;5124736;27;20147;-75
2022/07/18 09:38:53;;;;;;;5.15;1.92;;;25.40;71.00;;;;;;5122576;27;20031;-75
2022/07/18 09:41:27;;;;;;;2.63;1.38;;;25.40;70.90;;;;;;5125001;27;20968;-75
2022/07/18 09:43:53;;;;;;;5.88;1.77;;;25.50;70.70;;;;;;5125377;27;20048;-75
2022/07/18 09:46:19;;;;;;;6.63;2.00;;;25.50;70.70;;;;;;5124532;27;20074;-75
2022/07/18 09:48:45;;;;;;;5.30;2.38;;;25.50;70.60;;;;;;5125291;27;20600;-75
2022/07/18 09:51:11;;;;;;;4.22;1.75;;;25.50;70.50;;;;;;5123055;27;20528;-75
2022/07/18 09:53:41;;;;;;;3.63;1.58;;;25.60;70.40;;;;;;5123176;27;20036;-76
2022/07/18 09:56:10;;;;;;;4.35;1.67;;;25.60;70.40;;;;;;5122220;27;20930;-76
2022/07/18 09:58:37;;;;;;;6.60;1.67;;;25.60;70.40;;;;;;5124253;27;20044;-75
2022/07/18 10:01:05;;;;;;;2.25;1.63;;;25.70;70.30;;;;;;5108108;27;20035;-76
2022/07/18 10:03:32;;;;;;;3.22;1.60;;;25.70;70.10;;;;;;5124970;27;20075;-76
2022/07/18 10:05:59;;;;;;;3.08;1.60;;;25.80;70.10;;;;;;5124909;27;20040;-76
2022/07/18 10:08:28;;;;;;;2.25;1.50;;;25.80;70.00;;;;;;5125053;27;20051;-76
2022/07/18 10:10:55;;;;;;;3.25;1.52;;;25.80;70.00;;;;;;5123335;27;20551;-75
2022/07/18 10:13:22;;;;;;;3.05;1.70;;;25.90;69.90;;;;;;5123910;27;20043;-75
2022/07/18 10:15:50;;;;;;;4.22;1.55;;;25.90;69.70;;;;;;5126409;27;20437;-76
2022/07/18 10:18:21;;;;;;;2.63;1.40;;;25.90;69.50;;;;;;5124945;27;20063;-75
2022/07/18 10:20:54;;;;;;;7.43;2.28;;;26.00;69.20;;;;;;5125895;27;20043;-75
2022/07/18 10:23:28;;;;;;;2.20;1.52;;;26.00;69.00;;;;;;5122748;27;20149;-75
2022/07/18 10:26:16;;;;;;;3.00;1.77;;;26.10;69.00;;;;;;5124305;27;20036;-75
2022/07/18 10:31:32;;;;;;;3.67;2.10;;;26.30;68.20;;;;;;5124598;27;20047;-75
2022/07/18 10:34:07;;;;;;;3.00;2.05;;;26.30;68.10;;;;;;5123776;27;20608;-75
2022/07/18 10:36:36;;;;;;;6.03;2.13;;;26.30;67.80;;;;;;5124212;27;20040;-75
2022/07/18 10:39:13;;;;;;;4.30;1.55;;;26.30;67.70;;;;;;5124176;27;20067;-75
2022/07/18 10:41:39;;;;;;;3.80;1.70;;;26.40;67.60;;;;;;5123957;27;20035;-75
2022/07/18 10:44:26;;;;;;;3.72;2.00;;;26.50;68.10;;;;;;5125832;27;20039;-75
2022/07/18 10:47:08;;;;;;;2.72;1.45;;;26.60;67.20;;;;;;5126401;27;20822;-75
2022/07/18 10:50:01;;;;;;;8.48;3.42;;;26.60;67.00;;;;;;5127622;27;20047;-76
2022/07/18 10:52:27;;;;;;;3.20;1.75;;;26.60;66.60;;;;;;5123994;27;20728;-76
2022/07/18 10:55:05;;;;;;;2.92;1.80;;;26.60;66.40;;;;;;5128540;27;20054;-76
2022/07/18 10:57:35;;;;;;;2.50;1.67;;;26.60;66.20;;;;;;5128229;27;20031;-75
2022/07/18 11:00:13;;;;;;;3.53;1.80;;;26.70;66.30;;;;;;5127104;27;20047;-75
2022/07/18 11:03:03;;;;;;;3.35;2.25;;;26.70;66.20;;;;;;5127962;27;20166;-76
2022/07/18 11:05:28;;;;;;;9.65;4.30;;;26.80;65.80;;;;;;5129278;27;20051;-76
2022/07/18 11:08:03;;;;;;;2.72;1.60;;;26.80;65.80;;;;;;5126781;27;20468;-75
2022/07/18 11:10:50;;;;;;;3.75;1.92;;;26.90;65.60;;;;;;5127495;27;20040;-75
2022/07/18 11:13:31;;;;;;;3.50;1.50;;;26.90;65.50;;;;;;5126032;27;20135;-75
2022/07/18 11:16:06;;;;;;;2.70;1.50;;;26.90;65.30;;;;;;5129254;27;20633;-75
2022/07/18 11:18:53;;;;;;;3.15;1.38;;;26.90;65.30;;;;;;5124514;27;20047;-75
2022/07/18 11:21:31;;;;;;;4.88;1.48;;;27.00;65.20;;;;;;5127764;27;20879;-75
2022/07/18 11:24:03;;;;;;;2.42;1.58;;;27.00;64.90;;;;;;5126659;27;20032;-75
2022/07/18 11:26:30;;;;;;;2.95;1.40;;;27.10;65.10;;;;;;5128213;27;20437;-75
2022/07/18 11:29:09;;;;;;;6.75;1.70;;;27.10;64.90;;;;;;5126927;27;20393;-75
2022/07/18 11:31:56;;;;;;;4.28;1.20;;;27.20;64.80;;;;;;5128742;27;20039;-75
2022/07/18 11:34:24;;;;;;;4.30;1.77;;;27.20;64.50;;;;;;5127410;27;20803;-76
2022/07/18 11:36:50;;;;;;;7.47;2.05;;;27.20;64.30;;;;;;5128950;27;20540;-75
2022/07/18 11:39:31;;;;;;;3.03;1.48;;;27.30;64.10;;;;;;5127854;27;20044;-76
2022/07/18 11:41:57;;;;;;;3.30;1.25;;;27.30;63.90;;;;;;5127091;27;20039;-75
2022/07/18 11:44:26;;;;;;;2.42;1.50;;;27.40;64.00;;;;;;5127389;27;20044;-75
2022/07/18 11:47:04;;;;;;;4.72;1.58;;;27.40;64.00;;;;;;5126646;27;20074;-75
2022/07/18 11:49:29;;;;;;;3.38;1.60;;;27.50;63.80;;;;;;5127897;27;20043;-76
2022/07/18 11:51:55;;;;;;;4.57;1.52;;;27.50;63.80;;;;;;5126414;27;20067;-75
2022/07/18 11:54:25;;;;;;;6.32;2.05;;;27.50;64.00;;;;;;5127275;27;20130;-75
2022/07/18 11:56:53;;;;;;;5.72;1.83;;;27.50;64.00;;;;;;5124749;27;20082;-75
2022/07/18 11:59:20;;;;;;;2.33;1.73;;;27.60;64.10;;;;;;5127465;27;20052;-75
2022/07/18 12:01:52;;;;;;;2.67;1.25;;;27.60;64.00;;;;;;5126672;27;20092;-75
2022/07/18 12:04:20;;;;;;;4.25;1.70;;;27.60;64.10;;;;;;5129038;27;20046;-75
2022/07/18 12:07:13;;;;;;;2.67;1.52;;;27.60;64.20;;;;;;5126121;27;20048;-75
2022/07/18 12:09:39;;;;;;;4.93;1.75;;;27.60;64.10;;;;;;5126126;27;20608;-75
2022/07/18 12:12:13;;;;;;;5.50;1.70;;;27.70;64.00;;;;;;5125750;27;20044;-76
2022/07/18 12:14:39;;;;;;;2.55;1.73;;;27.70;63.90;;;;;;5128529;27;20040;-76
2022/07/18 12:17:05;;;;;;;3.13;1.40;;;27.80;63.70;;;;;;5125574;27;20416;-75
2022/07/18 12:19:39;;;;;;;4.30;1.50;;;27.80;63.60;;;;;;5127846;27;20044;-76
2022/07/18 12:22:12;;;;;;;3.08;1.52;;;27.90;63.50;;;;;;5125133;27;20132;-76
2022/07/18 12:24:39;;;;;;;3.72;1.73;;;27.90;63.60;;;;;;5126072;27;20923;-75
2022/07/18 12:27:13;;;;;;;2.55;1.75;;;27.90;63.50;;;;;;5125022;27;20072;-76
2022/07/18 12:29:59;;;;;;;5.15;1.70;;;28.00;63.50;;;;;;5127175;27;20104;-76
2022/07/18 12:32:26;;;;;;;5.90;1.80;;;28.00;63.50;;;;;;5109200;27;20039;-75
2022/07/18 12:35:01;;;;;;;3.67;1.80;;;28.00;63.70;;;;;;5126906;27;20103;-75
2022/07/18 12:37:29;;;;;;;3.55;1.70;;;28.10;63.80;;;;;;5126347;27;20569;-76
2022/07/18 12:40:01;;;;;;;3.83;1.85;;;28.10;63.60;;;;;;5123794;27;20497;-75
2022/07/18 12:42:32;;;;;;;1.95;1.50;;;28.10;63.40;;;;;;5122413;27;20040;-75
2022/07/18 12:44:58;;;;;;;3.50;1.55;;;28.20;63.50;;;;;;5123625;27;20039;-75
2022/07/18 12:47:24;;;;;;;6.63;2.30;;;28.20;63.60;;;;;;5126611;27;20039;-76
2022/07/18 12:49:50;;;;;;;3.45;2.28;;;28.20;63.70;;;;;;5123320;27;20067;-76
2022/07/18 12:52:18;;;;;;;3.53;1.40;;;28.30;63.70;;;;;;5122734;27;20166;-74
2022/07/18 12:54:44;;;;;;;2.80;1.90;;;28.30;63.70;;;;;;5123967;27;20561;-75